Time,TemperatureF,DewpointF,PressureIn,WindDirection,WindDirectionDegrees,WindSpeedMPH,WindSpeedGustMPH,Humidity,HourlyPrecipIn,Conditions,Clouds,dailyrainin,SoftwareType,DateUTC
2013-02-20 00:19:00,33.2,32.0,29.90,SSE,158,0.0,0.0,96,0.00,,,0.00,weatherlink.com 1.10,2013-02-20 08:19:00,
2013-02-20 00:34:00,33.2,33.0,29.90,SSE,158,0.0,0.0,97,0.00,,,0.00,weatherlink.com 1.10,2013-02-20 08:34:00,
2013-02-20 00:49:00,32.9,32.0,29.91,SSE,158,0.0,0.0,96,0.00,,,0.00,weatherlink.com 1.10,2013-02-20 08:49:00,
2013-02-20 01:04:00,32.7,32.0,29.91,SSE,158,0.0,0.0,96,0.00,,,0.00,weatherlink.com 1.10,2013-02-20 09:04:00,
2013-02-20 01:19:00,32.5,32.0,29.92,SSE,158,0.0,0.0,97,0.00,,,0.00,weatherlink.com 1.10,2013-02-20 09:19:00,
2013-02-20 01:34:00,32.3,32.0,29.91,SSE,158,0.0,0.0,97,0.00,,,0.00,weatherlink.com 1.10,2013-02-20 09:34:00,
2013-02-20 01:49:00,32.4,32.0,29.91,SSE,157,0.0,0.0,97,0.00,,,0.00,weatherlink.com 1.10,2013-02-20 09:49:00,
2013-02-20 02:04:00,32.0,31.0,29.92,SSE,156,0.0,0.0,97,0.00,,,0.00,weatherlink.com 1.10,2013-02-20 10:04:00,
2013-02-20 02:19:00,32.1,31.0,29.93,SSE,156,0.0,1.0,97,0.00,,,0.00,weatherlink.com 1.10,2013-02-20 10:19:00,
2013-02-20 02:34:00,32.2,32.0,29.93,SSE,156,0.0,1.0,97,0.00,,,0.00,weatherlink.com 1.10,2013-02-20 10:34:00,
2013-02-20 02:49:00,31.9,31.0,29.94,SSE,156,0.0,0.0,97,0.00,,,0.00,weatherlink.com 1.10,2013-02-20 10:49:00,
2013-02-20 03:04:00,31.7,31.0,29.94,SSE,156,0.0,0.0,97,0.00,,,0.00,weatherlink.com 1.10,2013-02-20 11:04:00,
2013-02-20 03:19:00,31.7,31.0,29.94,SSE,156,0.0,0.0,97,0.00,,,0.00,weatherlink.com 1.10,2013-02-20 11:19:00,
2013-02-20 03:35:00,31.5,31.0,29.95,SSE,149,0.0,1.0,97,0.00,,,0.00,weatherlink.com 1.10,2013-02-20 11:35:00,
2013-02-20 03:49:00,31.3,31.0,29.94,SSE,148,0.0,1.0,97,0.00,,,0.00,weatherlink.com 1.10,2013-02-20 11:49:00,
2013-02-20 04:04:00,31.2,31.0,29.95,SSE,148,0.0,0.0,97,0.00,,,0.00,weatherlink.com 1.10,2013-02-20 12:04:00,
2013-02-20 04:19:00,31.1,30.0,29.95,SSE,148,0.0,1.0,97,0.00,,,0.00,weatherlink.com 1.10,2013-02-20 12:19:00,
2013-02-20 04:35:00,31.0,30.0,29.96,SSE,148,0.0,0.0,97,0.00,,,0.00,weatherlink.com 1.10,2013-02-20 12:35:00,
2013-02-20 04:49:00,30.8,30.0,29.97,SSE,148,0.0,0.0,97,0.00,,,0.00,weatherlink.com 1.10,2013-02-20 12:49:00,
2013-02-20 05:04:00,30.8,30.0,29.96,SSE,148,0.0,0.0,97,0.00,,,0.00,weatherlink.com 1.10,2013-02-20 13:04:00,
2013-02-20 05:20:00,30.6,30.0,29.97,SSE,160,0.0,0.0,97,0.00,,,0.00,weatherlink.com 1.10,2013-02-20 13:20:00,
2013-02-20 05:34:00,30.6,30.0,29.98,SSE,161,0.0,0.0,97,0.00,,,0.00,weatherlink.com 1.10,2013-02-20 13:34:00,
2013-02-20 05:49:00,30.4,30.0,29.98,SSE,161,0.0,1.0,97,0.00,,,0.00,weatherlink.com 1.10,2013-02-20 13:49:00,
2013-02-20 06:05:00,30.3,30.0,29.98,SSE,160,0.0,1.0,97,0.00,,,0.00,weatherlink.com 1.10,2013-02-20 14:05:00,
2013-02-20 06:20:00,30.1,29.0,29.98,SSE,160,0.0,0.0,97,0.00,,,0.00,weatherlink.com 1.10,2013-02-20 14:20:00,
2013-02-20 06:35:00,30.2,30.0,29.98,SSE,160,0.0,0.0,97,0.00,,,0.00,weatherlink.com 1.10,2013-02-20 14:35:00,
2013-02-20 06:50:00,30.1,29.0,29.99,SSE,160,0.0,0.0,97,0.00,,,0.00,weatherlink.com 1.10,2013-02-20 14:50:00,
2013-02-20 07:05:00,29.9,29.0,29.99,SSE,166,0.0,0.0,97,0.00,,,0.00,weatherlink.com 1.10,2013-02-20 15:05:00,
2013-02-20 07:20:00,29.8,29.0,30.00,SSE,166,0.0,0.0,97,0.00,,,0.00,weatherlink.com 1.10,2013-02-20 15:20:00,
2013-02-20 07:35:00,29.8,29.0,30.01,SSE,166,0.0,0.0,97,0.00,,,0.00,weatherlink.com 1.10,2013-02-20 15:35:00,
2013-02-20 07:50:00,30.0,29.0,30.02,ESE,112,0.0,0.0,97,0.00,,,0.00,weatherlink.com 1.10,2013-02-20 15:50:00,
2013-02-20 08:05:00,30.3,30.0,30.02,ESE,111,0.0,0.0,97,0.00,,,0.00,weatherlink.com 1.10,2013-02-20 16:05:00,
2013-02-20 08:20:00,30.6,30.0,30.02,ESE,111,0.0,0.0,98,0.00,,,0.00,weatherlink.com 1.10,2013-02-20 16:20:00,
2013-02-20 08:35:00,31.1,31.0,30.03,ESE,110,0.0,0.0,98,0.00,,,0.00,weatherlink.com 1.10,2013-02-20 16:35:00,
2013-02-20 08:50:00,31.7,31.0,30.03,ENE,72,0.0,0.0,98,0.00,,,0.00,weatherlink.com 1.10,2013-02-20 16:50:00,
2013-02-20 09:05:00,32.5,32.0,30.04,North,4,0.0,0.0,98,0.00,,,0.00,weatherlink.com 1.10,2013-02-20 17:05:00,
2013-02-20 09:20:00,33.5,33.0,30.04,North,4,0.0,0.0,98,0.00,,,0.00,weatherlink.com 1.10,2013-02-20 17:20:00,
2013-02-20 09:35:00,35.0,35.0,30.04,North,5,0.0,0.0,99,0.00,,,0.00,weatherlink.com 1.10,2013-02-20 17:35:00,
2013-02-20 09:50:00,36.8,37.0,30.04,North,5,0.0,0.0,99,0.00,,,0.00,weatherlink.com 1.10,2013-02-20 17:50:00,
2013-02-20 10:05:00,38.1,38.0,30.04,North,4,0.0,0.0,99,0.00,,,0.00,weatherlink.com 1.10,2013-02-20 18:05:00,
2013-02-20 10:20:00,39.8,40.0,30.04,North,4,0.0,0.0,99,0.00,,,0.00,weatherlink.com 1.10,2013-02-20 18:20:00,
2013-02-20 10:35:00,41.7,41.0,30.04,North,5,0.0,0.0,97,0.00,,,0.00,weatherlink.com 1.10,2013-02-20 18:35:00,
2013-02-20 10:50:00,43.2,41.0,30.04,North,6,0.0,0.0,93,0.00,,,0.00,weatherlink.com 1.10,2013-02-20 18:50:00,
2013-02-20 11:05:00,45.0,42.0,30.04,North,6,0.0,0.0,89,0.00,,,0.00,weatherlink.com 1.10,2013-02-20 19:05:00,
2013-02-20 11:20:00,46.1,42.0,30.04,ESE,104,0.0,0.0,84,0.00,,,0.00,weatherlink.com 1.10,2013-02-20 19:20:00,
2013-02-20 11:36:00,48.5,41.0,30.04,East,99,3.0,4.0,76,0.00,,,0.00,weatherlink.com 1.10,2013-02-20 19:36:00,
2013-02-20 11:51:00,53.1,39.0,30.04,ESE,103,4.0,7.0,59,0.00,,,0.00,weatherlink.com 1.10,2013-02-20 19:51:00,
2013-02-20 12:06:00,54.4,40.0,30.04,ESE,115,3.0,7.0,58,0.00,,,0.00,weatherlink.com 1.10,2013-02-20 20:06:00,
2013-02-20 12:21:00,54.5,37.0,30.03,ESE,103,1.0,3.0,52,0.00,,,0.00,weatherlink.com 1.10,2013-02-20 20:21:00,
2013-02-20 12:36:00,55.5,38.0,30.03,ESE,106,2.0,6.0,52,0.00,,,0.00,weatherlink.com 1.10,2013-02-20 20:36:00,
2013-02-20 12:51:00,55.5,37.0,30.02,SE,124,1.0,3.0,51,0.00,,,0.00,weatherlink.com 1.10,2013-02-20 20:51:00,
2013-02-20 13:06:00,55.5,38.0,30.02,ESE,107,1.0,3.0,52,0.00,,,0.00,weatherlink.com 1.10,2013-02-20 21:06:00,
2013-02-20 13:21:00,56.0,34.0,30.01,SSE,148,1.0,6.0,43,0.00,,,0.00,weatherlink.com 1.10,2013-02-20 21:21:00,
2013-02-20 13:36:00,55.8,33.0,30.01,ESE,110,2.0,5.0,43,0.00,,,0.00,weatherlink.com 1.10,2013-02-20 21:36:00,
2013-02-20 13:51:00,56.2,38.0,30.00,SE,145,1.0,7.0,50,0.00,,,0.00,weatherlink.com 1.10,2013-02-20 21:51:00,
2013-02-20 14:06:00,55.8,39.0,30.00,SE,139,2.0,4.0,53,0.00,,,0.00,weatherlink.com 1.10,2013-02-20 22:06:00,
2013-02-20 14:21:00,55.4,39.0,30.00,East,96,0.0,4.0,54,0.00,,,0.00,weatherlink.com 1.10,2013-02-20 22:21:00,
2013-02-20 14:36:00,56.2,37.0,30.00,ESE,109,3.0,3.0,48,0.00,,,0.00,weatherlink.com 1.10,2013-02-20 22:36:00,
2013-02-20 14:51:00,56.2,38.0,29.99,NE,56,1.0,4.0,50,0.00,,,0.00,weatherlink.com 1.10,2013-02-20 22:51:00,
2013-02-20 15:06:00,54.7,43.0,29.99,SE,126,0.0,3.0,66,0.00,,,0.00,weatherlink.com 1.10,2013-02-20 23:06:00,
2013-02-20 15:21:00,53.5,44.0,29.99,NNE,13,0.0,2.0,70,0.00,,,0.00,weatherlink.com 1.10,2013-02-20 23:21:00,
2013-02-20 15:36:00,53.3,44.0,30.00,North,7,2.0,3.0,71,0.00,,,0.00,weatherlink.com 1.10,2013-02-20 23:36:00,
2013-02-20 15:51:00,51.7,44.0,30.00,SSW,204,0.0,2.0,76,0.00,,,0.00,weatherlink.com 1.10,2013-02-20 23:51:00,
2013-02-20 16:06:00,51.5,45.0,29.99,NNW,340,0.0,2.0,77,0.00,,,0.00,weatherlink.com 1.10,2013-02-21 00:06:00,
2013-02-20 16:21:00,51.0,44.0,30.00,SSW,212,0.0,2.0,77,0.00,,,0.00,weatherlink.com 1.10,2013-02-21 00:21:00,
2013-02-20 16:36:00,49.9,44.0,30.00,North,349,1.0,2.0,81,0.00,,,0.00,weatherlink.com 1.10,2013-02-21 00:36:00,
2013-02-20 16:51:00,49.2,44.0,30.00,North,9,0.0,2.0,82,0.00,,,0.00,weatherlink.com 1.10,2013-02-21 00:51:00,
2013-02-20 17:06:00,48.8,44.0,30.00,ESE,122,0.0,2.0,84,0.00,,,0.00,weatherlink.com 1.10,2013-02-21 01:06:00,
2013-02-20 17:21:00,48.4,44.0,30.01,NW,319,0.0,2.0,84,0.00,,,0.00,weatherlink.com 1.10,2013-02-21 01:21:00,
2013-02-20 17:36:00,47.9,44.0,30.01,North,1,1.0,2.0,86,0.00,,,0.00,weatherlink.com 1.10,2013-02-21 01:36:00,
2013-02-20 17:51:00,47.3,43.0,30.02,East,94,0.0,0.0,86,0.00,,,0.00,weatherlink.com 1.10,2013-02-21 01:51:00,
2013-02-20 18:06:00,46.8,43.0,30.02,NNE,17,0.0,0.0,87,0.00,,,0.00,weatherlink.com 1.10,2013-02-21 02:06:00,
2013-02-20 18:21:00,46.2,42.0,30.03,NNE,18,0.0,0.0,86,0.00,,,0.00,weatherlink.com 1.10,2013-02-21 02:21:00,
2013-02-20 18:36:00,45.6,42.0,30.04,NNE,18,0.0,0.0,86,0.00,,,0.00,weatherlink.com 1.10,2013-02-21 02:36:00,
2013-02-20 18:51:00,45.0,41.0,30.04,East,101,0.0,0.0,87,0.00,,,0.00,weatherlink.com 1.10,2013-02-21 02:51:00,
2013-02-20 19:06:00,44.5,41.0,30.05,North,356,0.0,0.0,87,0.00,,,0.00,weatherlink.com 1.10,2013-02-21 03:06:00,
2013-02-20 19:22:00,44.1,41.0,30.05,North,356,0.0,0.0,88,0.00,,,0.00,weatherlink.com 1.10,2013-02-21 03:22:00,
2013-02-20 19:37:00,43.7,40.0,30.05,North,356,0.0,0.0,88,0.00,,,0.00,weatherlink.com 1.10,2013-02-21 03:37:00,
2013-02-20 19:51:00,43.3,40.0,30.06,North,356,0.0,0.0,88,0.00,,,0.00,weatherlink.com 1.10,2013-02-21 03:51:00,
2013-02-20 20:06:00,42.9,40.0,30.06,NW,324,0.0,0.0,89,0.00,,,0.00,weatherlink.com 1.10,2013-02-21 04:06:00,
2013-02-20 20:21:00,42.5,40.0,30.06,NW,324,0.0,0.0,89,0.00,,,0.00,weatherlink.com 1.10,2013-02-21 04:21:00,
2013-02-20 20:36:00,42.0,39.0,30.06,NNW,330,0.0,0.0,89,0.00,,,0.00,weatherlink.com 1.10,2013-02-21 04:36:00,
2013-02-20 20:51:00,41.7,39.0,30.07,NNW,330,0.0,0.0,90,0.00,,,0.00,weatherlink.com 1.10,2013-02-21 04:51:00,
2013-02-20 21:06:00,41.5,39.0,30.08,NNW,329,0.0,0.0,90,0.00,,,0.00,weatherlink.com 1.10,2013-02-21 05:06:00,
2013-02-20 21:22:00,41.0,38.0,30.08,North,4,0.0,0.0,90,0.00,,,0.00,weatherlink.com 1.10,2013-02-21 05:22:00,
2013-02-20 21:36:00,40.7,38.0,30.09,North,4,0.0,0.0,90,0.00,,,0.00,weatherlink.com 1.10,2013-02-21 05:36:00,
2013-02-20 21:51:00,40.4,38.0,30.09,North,4,0.0,0.0,91,0.00,,,0.00,weatherlink.com 1.10,2013-02-21 05:51:00,
2013-02-20 22:06:00,40.1,38.0,30.09,North,4,0.0,0.0,91,0.00,,,0.00,weatherlink.com 1.10,2013-02-21 06:06:00,
2013-02-20 22:22:00,39.9,38.0,30.08,North,4,0.0,0.0,92,0.00,,,0.00,weatherlink.com 1.10,2013-02-21 06:22:00,
2013-02-20 22:37:00,39.7,38.0,30.09,North,4,0.0,0.0,92,0.00,,,0.00,weatherlink.com 1.10,2013-02-21 06:37:00,
2013-02-20 22:51:00,39.4,37.0,30.09,North,4,0.0,0.0,92,0.00,,,0.00,weatherlink.com 1.10,2013-02-21 06:51:00,
2013-02-20 23:06:00,39.2,37.0,30.09,North,4,0.0,0.0,92,0.00,,,0.00,weatherlink.com 1.10,2013-02-21 07:06:00,
2013-02-20 23:21:00,38.9,37.0,30.09,North,1,0.0,0.0,93,0.00,,,0.00,weatherlink.com 1.10,2013-02-21 07:21:00,
2013-02-20 23:37:00,38.5,37.0,30.09,North,1,0.0,0.0,93,0.00,,,0.00,weatherlink.com 1.10,2013-02-21 07:37:00,
2013-02-20 23:52:00,38.2,36.0,30.08,North,1,0.0,0.0,93,0.00,,,0.00,weatherlink.com 1.10,2013-02-21 07:52:00,